Topsham, ME (04086)

3:29 PM EST on January 30, 2015 (GMT -0500)
MEADOW CROSS | Change Station
CLOSE
Current Station
Personal Weather Station
Location: Topsham, ME
Elevation: 148 ft
Nearby Weather Stations
Active Advisory: Winter Storm Warning Active Notice: Public Information Statement

Elev 148 ft 43.98 °N, 69.99 °W | Updated 1 minute ago

Snow
Snow
28.9 °F
Feels Like 29 °F
N
2.0
Wind Variable Wind from North
Gusts 4.0 mph

Today
High -- | Low -- °F
--% Chance of Precip.
Yesterday
High -- | Low -- °F
Precip. -- in
6:59 AM 4:47 PM
Waxing Gibbous, 85% visible
Pressure 29.71 in
Visibility 0.8 miles
Clouds
Windchill 29 °F
Dew Point 28 °F
Humidity 96%
Rainfall 0.00 in
Snow Depth Not available.
UV 0.0 out of 12
Pollen .10 out of 12
Air Quality Not available.
Flu Activity Not available.
METAR KIWI 301953Z AUTO 03004KT 3/4SM -SN BR VV018 M01/M03 A2971 RMK AO2 SLP061 P0005 T10111028

More Conditions Fewer Conditions

Pressure 29.71 in
Visibility 0.8 miles
Clouds
Windchill 29 °F
Dew Point 28 °F
Humidity 96%
Rainfall 0.00 in
Snow Depth Not available.
UV 0.0 out of 12
Pollen .10 out of 12
Air Quality Not available.
Flu Activity Not available.
METAR KIWI 301953Z AUTO 03004KT 3/4SM -SN BR VV018 M01/M03 A2971 RMK AO2 SLP061 P0005 T10111028

More Conditions Fewer Conditions

10-Day Weather Forecast

Almanac

Astronomy

Jan. 30, 2015 Rise Set
Actual Time
Civil Twilight
Nautical Twilight
Astronomical Twilight
Moon
Length of Visible Light
Length of Day
Tomorrow will be .
, % of the Moon is Illuminated

Today's Extremes

State Highs State Lows

Community

WunderPhotos

Upload Photos

1,791,887 photos uploaded!

WunderBlogs® & News

Nearby

Air Quality

  Air Quality AQ Index Pollutant
Not available.

Snow Depth

Station Depth Elevation

Earthquake Activity

City Distance Mag. Time & Date
Minimum magnitude displayed is 2.5.

Coastal Water Temperatures

Place Temperature

Nearby Weather Stations